createdAt,value
2018-04-24T00:02:05.164Z,91.90
2018-04-24T00:04:39.677Z,92.50
2018-04-24T00:07:08.600Z,92.50
2018-04-24T00:09:40.335Z,92.20
2018-04-24T00:12:11.513Z,92.20
2018-04-24T00:14:40.799Z,92.00
2018-04-24T00:17:10.725Z,92.60
2018-04-24T00:19:38.864Z,92.60
2018-04-24T00:22:13.736Z,92.70
2018-04-24T00:24:46.820Z,92.70
2018-04-24T00:27:14.971Z,93.30
2018-04-24T00:29:43.101Z,93.40
2018-04-24T00:32:13.797Z,93.10
2018-04-24T00:34:44.197Z,93.10
2018-04-24T00:37:14.104Z,93.20
2018-04-24T00:39:46.197Z,93.20
2018-04-24T00:42:22.676Z,93.50
2018-04-24T00:44:50.923Z,93.50
2018-04-24T00:47:20.252Z,93.10
2018-04-24T00:49:48.480Z,93.10
2018-04-24T00:52:18.340Z,93.00
2018-04-24T00:54:55.023Z,92.80
2018-04-24T00:57:33.626Z,93.20
2018-04-24T01:00:02.642Z,93.30
2018-04-24T01:02:31.287Z,93.30
2018-04-24T01:05:00.180Z,93.00
2018-04-24T01:07:28.674Z,93.00
2018-04-24T01:09:56.896Z,93.00
2018-04-24T01:12:27.388Z,92.80
2018-04-24T01:14:55.676Z,92.70
2018-04-24T01:17:24.892Z,93.20
2018-04-24T01:19:53.156Z,93.20
2018-04-24T01:22:27.870Z,93.30
2018-04-24T01:24:56.318Z,93.30
2018-04-24T01:27:25.245Z,93.80
2018-04-24T01:29:55.840Z,94.30
2018-04-24T01:32:25.700Z,93.90
2018-04-24T01:34:55.871Z,93.80
2018-04-24T01:37:25.200Z,93.80
2018-04-24T01:40:03.372Z,93.60
2018-04-24T01:42:33.426Z,93.80
2018-04-24T01:45:13.076Z,93.80
2018-04-24T01:47:46.543Z,93.40
2018-04-24T01:50:21.696Z,93.30
2018-04-24T01:52:55.075Z,94.00
2018-04-24T01:55:23.977Z,94.00
2018-04-24T01:57:52.896Z,94.20
2018-04-24T02:00:21.823Z,94.20
2018-04-24T02:02:49.985Z,94.20
2018-04-24T02:05:18.620Z,94.00
2018-04-24T02:07:48.514Z,94.00
2018-04-24T02:10:16.653Z,94.00
2018-04-24T02:12:44.823Z,94.20
2018-04-24T02:15:13.305Z,94.60
2018-04-24T02:17:42.352Z,94.50
2018-04-24T02:20:11.105Z,94.60
2018-04-24T02:22:39.672Z,94.00
2018-04-24T02:25:07.887Z,93.80
2018-04-24T02:27:36.794Z,93.80
2018-04-24T02:30:05.688Z,93.60
2018-04-24T02:32:34.630Z,93.60
2018-04-24T02:35:02.819Z,93.60
2018-04-24T02:37:30.992Z,93.20
2018-04-24T02:40:00.588Z,93.10
2018-04-24T02:42:30.154Z,93.10
2018-04-24T02:44:59.485Z,93.10
2018-04-24T02:47:28.942Z,92.80
2018-04-24T02:49:57.850Z,92.90
2018-04-24T02:52:29.348Z,92.90
2018-04-24T02:54:57.484Z,92.20
2018-04-24T02:57:26.425Z,92.70
2018-04-24T02:59:54.577Z,93.20
2018-04-24T03:02:22.738Z,93.60
2018-04-24T03:04:50.883Z,93.50
2018-04-24T03:07:20.927Z,94.10
2018-04-24T03:09:49.056Z,93.90
2018-04-24T03:12:19.872Z,93.70
2018-04-24T03:14:50.490Z,93.60
2018-04-24T03:17:24.723Z,93.70
2018-04-24T03:19:53.496Z,94.80
2018-04-24T03:22:21.774Z,94.80
2018-04-24T03:24:51.046Z,95.20
2018-04-24T03:27:30.205Z,95.20
2018-04-24T03:30:12.156Z,94.30
2018-04-24T03:32:48.021Z,94.20
2018-04-24T03:35:19.990Z,94.10
2018-04-24T03:37:48.171Z,94.30
2018-04-24T03:40:17.546Z,94.10
2018-04-24T03:42:46.426Z,94.40
2018-04-24T03:45:16.089Z,94.30
2018-04-24T03:47:45.646Z,94.00
2018-04-24T03:50:14.568Z,93.50
2018-04-24T03:52:43.167Z,93.50
2018-04-24T03:55:11.369Z,93.30
2018-04-24T03:57:39.984Z,93.40
2018-04-24T04:00:10.744Z,93.30
2018-04-24T04:02:39.000Z,93.30
2018-04-24T04:05:13.447Z,93.40
2018-04-24T04:07:41.586Z,93.40
2018-04-24T04:10:20.546Z,93.10
2018-04-24T04:12:48.680Z,93.10
2018-04-24T04:15:17.597Z,92.70
2018-04-24T04:18:07.440Z,92.60
2018-04-24T04:20:48.388Z,92.80
2018-04-24T04:23:28.569Z,93.10
2018-04-24T04:26:03.608Z,93.40
2018-04-24T04:28:39.245Z,93.40
2018-04-24T04:31:17.338Z,93.70
2018-04-24T04:33:46.397Z,93.40
2018-04-24T04:36:16.278Z,93.40
2018-04-24T04:38:52.085Z,93.50
2018-04-24T04:41:21.401Z,93.30
2018-04-24T04:43:49.909Z,93.30
2018-04-24T04:46:21.384Z,93.10
2018-04-24T04:48:50.876Z,93.20
2018-04-24T04:51:19.906Z,93.70
2018-04-24T04:53:50.151Z,93.70
2018-04-24T04:56:28.846Z,92.10
2018-04-24T04:58:56.983Z,92.00
2018-04-24T05:01:26.945Z,92.40
2018-04-24T05:04:07.886Z,92.20
2018-04-24T05:06:37.217Z,92.20
2018-04-24T05:09:06.176Z,91.20
2018-04-24T05:11:34.425Z,90.80
2018-04-24T05:14:05.424Z,89.80
2018-04-24T05:16:34.832Z,89.70
2018-04-24T05:19:06.240Z,88.80
2018-04-24T05:21:38.338Z,88.80
2018-04-24T05:24:10.787Z,88.70
2018-04-24T05:26:45.106Z,91.10
2018-04-24T05:29:13.245Z,91.00
2018-04-24T05:31:48.309Z,90.90
2018-04-24T05:34:19.877Z,90.20
2018-04-24T05:36:48.912Z,88.20
2018-04-24T05:39:18.224Z,88.20
2018-04-24T05:41:50.073Z,84.10
2018-04-24T05:44:23.038Z,81.40
2018-04-24T05:46:51.690Z,81.30
2018-04-24T05:49:19.825Z,79.30
2018-04-24T05:51:47.953Z,77.90
2018-04-24T05:54:16.892Z,79.50
2018-04-24T05:56:47.285Z,78.80
2018-04-24T05:59:16.814Z,76.50
2018-04-24T06:01:44.937Z,76.30
2018-04-24T06:04:14.000Z,76.20
2018-04-24T06:06:56.158Z,75.80
2018-04-24T06:09:26.111Z,75.60
2018-04-24T06:11:58.124Z,76.00
2018-04-24T06:14:27.616Z,76.60
2018-04-24T06:16:57.950Z,76.60
2018-04-24T06:19:32.746Z,72.70
2018-04-24T06:22:06.635Z,72.70
2018-04-24T06:24:40.378Z,73.60
2018-04-24T06:27:14.148Z,73.40
2018-04-24T06:29:48.823Z,74.90
2018-04-24T06:32:22.700Z,74.90
2018-04-24T06:34:56.451Z,71.60
2018-04-24T06:37:30.179Z,72.60
2018-04-24T06:40:03.962Z,69.30
2018-04-24T06:42:37.830Z,66.80
2018-04-24T06:45:05.968Z,67.40
2018-04-24T06:47:34.128Z,65.30
2018-04-24T06:50:02.268Z,65.80
2018-04-24T06:52:30.421Z,65.20
2018-04-24T06:54:58.577Z,63.40
2018-04-24T06:57:26.688Z,64.90
2018-04-24T06:59:54.859Z,64.80
2018-04-24T07:02:22.992Z,63.90
2018-04-24T07:04:53.114Z,66.00
2018-04-24T07:07:21.249Z,66.00
2018-04-24T07:09:50.173Z,67.50
2018-04-24T07:12:18.296Z,67.50
2018-04-24T07:14:46.453Z,66.80
2018-04-24T07:17:14.567Z,64.00
2018-04-24T07:19:43.816Z,65.10
2018-04-24T07:22:11.948Z,63.80
2018-04-24T07:24:40.117Z,64.50
2018-04-24T07:27:09.072Z,64.90
2018-04-24T07:29:37.196Z,64.90
2018-04-24T07:32:05.318Z,64.60
2018-04-24T07:34:33.490Z,64.40
2018-04-24T07:37:02.207Z,64.10
2018-04-24T07:39:31.124Z,65.10
2018-04-24T07:41:59.262Z,65.10
2018-04-24T07:44:29.301Z,65.70
2018-04-24T07:46:57.450Z,66.90
2018-04-24T07:49:27.276Z,67.50
2018-04-24T07:51:56.174Z,69.10
2018-04-24T07:54:25.096Z,67.70
2018-04-24T07:56:53.234Z,67.70
2018-04-24T07:59:22.429Z,69.40
2018-04-24T08:01:50.502Z,69.40
2018-04-24T08:04:18.661Z,68.70
2018-04-24T08:06:46.804Z,69.50
2018-04-24T08:09:15.777Z,69.20
2018-04-24T08:11:45.130Z,70.90
2018-04-24T08:14:15.703Z,69.10
2018-04-24T08:16:45.784Z,68.30
2018-04-24T08:19:15.151Z,67.50
2018-04-24T08:21:43.290Z,67.40
2018-04-24T08:24:14.261Z,67.20
2018-04-24T08:26:42.371Z,67.20
2018-04-24T08:29:10.523Z,69.30
2018-04-24T08:31:38.653Z,67.50
2018-04-24T08:34:06.851Z,67.70
2018-04-24T08:36:34.990Z,69.30
2018-04-24T08:39:04.408Z,69.30
2018-04-24T08:41:32.535Z,69.00
2018-04-24T08:44:00.690Z,69.40
2018-04-24T08:46:28.827Z,69.70
2018-04-24T08:48:57.810Z,69.30
2018-04-24T08:51:27.124Z,68.60
2018-04-24T08:53:55.274Z,68.10
2018-04-24T08:56:24.196Z,69.10
2018-04-24T09:01:22.561Z,68.40
2018-04-24T09:03:51.472Z,70.40
2018-04-24T09:06:19.605Z,70.40
2018-04-24T09:08:47.756Z,70.90
2018-04-24T09:11:18.636Z,71.50
2018-04-24T09:13:47.179Z,73.30
2018-04-24T09:16:15.301Z,73.70
2018-04-24T09:18:43.462Z,74.20
2018-04-24T09:21:15.336Z,74.90
2018-04-24T09:23:44.728Z,75.30
2018-04-24T09:26:13.623Z,73.90
2018-04-24T09:28:43.857Z,75.00
2018-04-24T09:31:12.002Z,75.00
2018-04-24T09:36:41.295Z,73.90
2018-04-24T09:39:09.427Z,76.10
2018-04-24T09:41:38.316Z,74.70
2018-04-24T09:44:08.345Z,75.60
2018-04-24T09:46:36.467Z,75.40
2018-04-24T09:49:04.607Z,76.90
2018-04-24T09:51:33.175Z,77.00
2018-04-24T09:54:01.306Z,77.40
2018-04-24T09:56:29.463Z,77.90
2018-04-24T09:58:59.347Z,79.40
2018-04-24T10:01:27.469Z,81.10
2018-04-24T10:03:57.113Z,82.20
2018-04-24T10:06:26.004Z,83.80
2018-04-24T10:08:55.003Z,83.80
2018-04-24T10:11:23.123Z,84.90
2018-04-24T10:13:51.256Z,85.30
2018-04-24T10:16:19.380Z,86.30
2018-04-24T10:18:47.583Z,86.80
2018-04-24T10:21:15.668Z,86.70
2018-04-24T10:23:43.831Z,86.20
2018-04-24T10:26:12.719Z,85.70
2018-04-24T10:28:43.453Z,85.70
2018-04-24T10:31:13.146Z,84.60
2018-04-24T10:33:41.307Z,84.90
2018-04-24T10:36:09.439Z,86.20
2018-04-24T10:38:37.591Z,85.90
2018-04-24T10:41:06.474Z,85.00
2018-04-24T10:43:35.365Z,85.00
2018-04-24T10:46:04.419Z,85.90
2018-04-24T10:48:33.442Z,85.80
2018-04-24T10:51:01.588Z,84.30
2018-04-24T10:53:29.695Z,84.70
2018-04-24T10:56:00.363Z,85.60
2018-04-24T10:58:28.505Z,85.80
2018-04-24T11:00:57.412Z,88.60
2018-04-24T11:03:27.261Z,87.70
2018-04-24T11:05:55.404Z,88.90
2018-04-24T11:08:23.525Z,87.60
2018-04-24T11:10:51.655Z,87.60
2018-04-24T11:13:19.775Z,86.30
2018-04-24T11:15:47.990Z,85.60
2018-04-24T11:18:18.938Z,85.10
2018-04-24T11:20:50.295Z,85.50
2018-04-24T11:23:18.415Z,85.40
2018-04-24T11:25:46.560Z,83.40
2018-04-24T11:28:14.673Z,81.00
2018-04-24T11:30:42.815Z,81.90
2018-04-24T11:33:17.515Z,81.90
2018-04-24T11:35:45.654Z,80.90
2018-04-24T11:38:13.777Z,81.20
2018-04-24T11:40:41.924Z,81.50
2018-04-24T11:43:10.042Z,81.50
2018-04-24T11:45:38.189Z,80.80
2018-04-24T11:48:06.748Z,80.50
2018-04-24T11:50:35.650Z,80.30
2018-04-24T11:53:03.763Z,80.30
2018-04-24T11:55:33.783Z,80.30
2018-04-24T11:58:02.002Z,80.90
2018-04-24T12:00:30.178Z,80.70
2018-04-24T12:02:59.066Z,82.10
2018-04-24T12:05:27.973Z,81.40
2018-04-24T12:07:56.090Z,81.40
2018-04-24T12:10:24.231Z,81.20
2018-04-24T12:12:52.346Z,81.10
2018-04-24T12:15:20.483Z,81.20
2018-04-24T12:17:49.880Z,82.30
2018-04-24T12:20:18.024Z,83.30
2018-04-24T12:22:46.913Z,80.90
2018-04-24T12:25:15.827Z,81.40
2018-04-24T12:27:43.935Z,81.30
2018-04-24T12:30:12.079Z,81.10
2018-04-24T12:32:40.199Z,82.20
2018-04-24T12:35:08.351Z,82.30
2018-04-24T12:37:36.576Z,83.00
2018-04-24T12:40:05.982Z,84.60
2018-04-24T12:42:34.868Z,84.20
2018-04-24T12:45:04.716Z,84.20
2018-04-24T12:47:32.836Z,84.90
2018-04-24T12:50:00.983Z,84.90
2018-04-24T12:52:31.835Z,84.60
2018-04-24T12:54:59.985Z,84.70
2018-04-24T12:57:28.109Z,84.80
2018-04-24T12:59:57.023Z,84.20
2018-04-24T13:02:25.151Z,84.20
2018-04-24T13:04:53.303Z,85.00
2018-04-24T13:07:21.421Z,84.90
2018-04-24T13:09:50.398Z,83.70
2018-04-24T13:12:18.463Z,83.60
2018-04-24T13:14:46.632Z,83.90
2018-04-24T13:17:14.762Z,83.20
2018-04-24T13:19:42.910Z,83.80
2018-04-24T13:22:11.803Z,82.00
2018-04-24T13:24:40.727Z,82.00
2018-04-24T13:27:08.858Z,82.00
2018-04-24T13:29:37.763Z,81.40
2018-04-24T13:32:06.263Z,81.40
2018-04-24T13:34:34.408Z,79.50
2018-04-24T13:37:02.529Z,78.80
2018-04-24T13:39:32.523Z,78.20
2018-04-24T13:42:00.648Z,78.10
2018-04-24T13:44:28.786Z,78.20
2018-04-24T13:47:01.353Z,78.20
2018-04-24T13:49:29.465Z,78.10
2018-04-24T13:51:59.436Z,77.80
2018-04-24T13:54:27.561Z,77.70
2018-04-24T13:56:55.723Z,78.60
2018-04-24T13:59:24.781Z,77.60
2018-04-24T14:01:52.958Z,77.60
2018-04-24T14:04:21.078Z,79.00
2018-04-24T14:06:49.990Z,78.50
2018-04-24T14:09:18.884Z,78.70
2018-04-24T14:11:47.795Z,79.30
2018-04-24T14:14:15.919Z,79.30
2018-04-24T14:16:44.088Z,78.80
2018-04-24T14:19:13.749Z,78.70
2018-04-24T14:21:42.712Z,78.20
2018-04-24T14:24:10.796Z,78.20
2018-04-24T14:26:40.370Z,76.80
2018-04-24T14:29:08.490Z,76.80
2018-04-24T14:31:38.582Z,75.80
2018-04-24T14:34:06.707Z,75.90
2018-04-24T14:36:37.336Z,75.70
2018-04-24T14:39:06.211Z,75.70
2018-04-24T14:41:35.117Z,76.10
2018-04-24T14:44:04.899Z,76.70
2018-04-24T14:46:33.806Z,77.00
2018-04-24T14:49:01.926Z,76.90
2018-04-24T14:51:31.705Z,76.60
2018-04-24T14:54:00.166Z,77.30
2018-04-24T14:56:29.077Z,76.60
2018-04-24T14:58:57.249Z,76.50
2018-04-24T15:01:25.416Z,77.20
2018-04-24T15:03:53.539Z,76.50
2018-04-24T15:06:21.704Z,76.30
2018-04-24T15:08:49.829Z,76.60
2018-04-24T15:11:17.975Z,76.00
2018-04-24T15:13:46.163Z,77.10
2018-04-24T15:16:15.072Z,76.10
2018-04-24T15:18:43.222Z,76.10
2018-04-24T15:21:11.369Z,77.50
2018-04-24T15:23:39.502Z,77.70
2018-04-24T15:26:14.875Z,78.40
2018-04-24T15:28:45.971Z,77.70
2018-04-24T15:31:14.652Z,77.70
2018-04-24T15:33:42.775Z,78.10
2018-04-24T15:36:10.916Z,78.30
2018-04-24T15:38:39.805Z,78.00
2018-04-24T15:41:08.725Z,78.40
2018-04-24T15:43:36.851Z,78.30
2018-04-24T15:46:05.009Z,77.90
2018-04-24T15:48:33.128Z,78.30
2018-04-24T15:51:02.359Z,77.40
2018-04-24T15:53:30.473Z,78.20
2018-04-24T15:55:58.627Z,78.00
2018-04-24T15:58:27.248Z,77.70
2018-04-24T16:00:56.165Z,78.00
2018-04-24T16:03:24.283Z,78.00
2018-04-24T16:05:52.438Z,78.50
2018-04-24T16:08:21.777Z,78.40
2018-04-24T16:10:49.931Z,78.70
2018-04-24T16:13:18.818Z,79.20
2018-04-24T16:15:46.964Z,80.00
2018-04-24T16:18:15.091Z,78.80
2018-04-24T16:20:43.265Z,78.90
2018-04-24T16:23:12.261Z,78.90
2018-04-24T16:25:41.117Z,78.50
2018-04-24T16:28:09.239Z,78.20
2018-04-24T16:30:38.150Z,80.80
2018-04-24T16:33:06.275Z,80.70
2018-04-24T16:35:36.011Z,80.10
2018-04-24T16:38:04.892Z,82.30
2018-04-24T16:40:35.196Z,83.30
2018-04-24T16:43:04.475Z,81.90
2018-04-24T16:45:32.726Z,81.90
2018-04-24T16:48:00.880Z,82.00
2018-04-24T16:50:29.779Z,81.20
2018-04-24T16:53:01.634Z,80.80
2018-04-24T16:55:29.792Z,80.60
2018-04-24T16:57:58.379Z,80.60
2018-04-24T17:00:26.953Z,81.10
2018-04-24T17:02:55.037Z,82.30
2018-04-24T17:05:23.943Z,82.80
2018-04-24T17:07:52.755Z,83.00
2018-04-24T17:10:20.879Z,83.00
2018-04-24T17:12:49.028Z,83.40
2018-04-24T17:15:17.147Z,82.90
2018-04-24T17:17:46.060Z,84.40
2018-04-24T17:20:14.768Z,84.30
2018-04-24T17:22:43.412Z,84.30
2018-04-24T17:25:11.562Z,84.30
2018-04-24T17:27:39.721Z,84.80
2018-04-24T17:30:08.723Z,85.10
2018-04-24T17:32:40.239Z,85.30
2018-04-24T17:35:10.741Z,85.60
2018-04-24T17:37:39.320Z,86.30
2018-04-24T17:40:07.441Z,86.50
2018-04-24T17:42:35.599Z,87.10
2018-04-24T17:45:06.402Z,87.10
2018-04-24T17:47:35.758Z,87.50
2018-04-24T17:50:03.997Z,87.50
2018-04-24T17:52:32.060Z,87.90
2018-04-24T17:55:00.942Z,88.00
2018-04-24T17:57:29.096Z,88.00
2018-04-24T17:59:57.215Z,88.70
2018-04-24T18:02:25.358Z,89.50
2018-04-24T18:04:53.959Z,89.10
2018-04-24T18:07:22.863Z,90.30
2018-04-24T18:09:51.755Z,90.50
2018-04-24T18:12:20.659Z,90.60
2018-04-24T18:14:48.778Z,90.50
2018-04-24T18:17:16.916Z,90.60
2018-04-24T18:19:45.034Z,90.80
2018-04-24T18:22:13.883Z,91.20
2018-04-24T18:24:42.001Z,91.20
2018-04-24T18:27:10.149Z,91.00
2018-04-24T18:29:38.272Z,90.90
2018-04-24T18:32:07.187Z,90.90
2018-04-24T18:34:36.208Z,91.10
2018-04-24T18:37:05.820Z,91.00
2018-04-24T18:39:33.934Z,91.00
2018-04-24T18:42:03.060Z,91.40
2018-04-24T18:44:31.204Z,91.60
2018-04-24T18:46:59.347Z,91.30
2018-04-24T18:49:27.475Z,91.50
2018-04-24T18:51:55.625Z,91.40
2018-04-24T18:54:23.828Z,91.60
2018-04-24T18:56:51.911Z,91.80
2018-04-24T18:59:20.049Z,92.00
2018-04-24T19:01:49.687Z,92.40
2018-04-24T19:04:17.810Z,92.40
2018-04-24T19:06:46.328Z,92.70
2018-04-24T19:09:15.217Z,92.70
2018-04-24T19:11:44.143Z,92.70
2018-04-24T19:14:19.652Z,93.20
2018-04-24T19:16:48.556Z,93.30
2018-04-24T19:19:22.323Z,93.20
2018-04-24T19:21:50.736Z,93.20
2018-04-24T19:24:25.623Z,93.00
2018-04-24T19:26:55.030Z,92.90
2018-04-24T19:29:23.159Z,92.50
2018-04-24T19:31:57.583Z,92.90
2018-04-24T19:34:25.767Z,93.00
2018-04-24T19:36:53.994Z,93.00
2018-04-24T19:39:28.200Z,93.50
2018-04-24T19:41:57.370Z,93.40
2018-04-24T19:44:27.017Z,93.40
2018-04-24T19:46:55.166Z,93.40
2018-04-24T19:49:29.121Z,93.50
2018-04-24T19:51:58.020Z,93.90
2018-04-24T19:54:26.975Z,93.90
2018-04-24T19:56:58.602Z,94.60
2018-04-24T19:59:27.928Z,94.60
2018-04-24T20:01:56.075Z,94.70
2018-04-24T20:04:24.267Z,94.60
2018-04-24T20:06:53.151Z,94.50
2018-04-24T20:09:21.300Z,94.50
2018-04-24T20:11:49.447Z,94.20
2018-04-24T20:14:18.344Z,95.20
2018-04-24T20:16:46.503Z,95.20
2018-04-24T20:19:15.392Z,95.30
2018-04-24T20:21:44.288Z,95.20
2018-04-24T20:24:13.206Z,95.30
2018-04-24T20:26:43.390Z,95.40
2018-04-24T20:29:11.545Z,95.40
2018-04-24T20:31:39.666Z,95.20
2018-04-24T20:34:08.959Z,95.20
2018-04-24T20:36:39.892Z,95.20
2018-04-24T20:39:08.817Z,95.00
2018-04-24T20:41:36.934Z,95.00
2018-04-24T20:44:05.088Z,95.30
2018-04-24T20:46:36.099Z,95.80
2018-04-24T20:49:04.254Z,95.90
2018-04-24T20:51:33.830Z,95.00
2018-04-24T20:54:01.989Z,94.90
2018-04-24T20:56:30.119Z,94.90
2018-04-24T20:58:58.261Z,94.80
2018-04-24T21:01:28.079Z,95.90
2018-04-24T21:03:57.403Z,95.90
2018-04-24T21:06:27.512Z,95.70
2018-04-24T21:08:56.516Z,95.70
2018-04-24T21:11:25.143Z,95.30
2018-04-24T21:13:53.302Z,95.20
2018-04-24T21:16:21.425Z,95.50
2018-04-24T21:18:50.335Z,95.40
2018-04-24T21:21:18.473Z,95.40
2018-04-24T21:23:46.620Z,95.20
2018-04-24T21:26:14.739Z,95.20
2018-04-24T21:28:43.650Z,94.90
2018-04-24T21:31:12.506Z,94.90
2018-04-24T21:33:40.655Z,94.90
2018-04-24T21:36:08.804Z,95.00
2018-04-24T21:38:38.915Z,95.10
2018-04-24T21:41:07.059Z,95.10
2018-04-24T21:43:35.969Z,95.50
2018-04-24T21:46:04.168Z,95.50
2018-04-24T21:48:32.316Z,95.80
2018-04-24T21:51:01.645Z,95.80
2018-04-24T21:53:29.799Z,95.50
2018-04-24T21:55:57.927Z,95.70
2018-04-24T21:58:26.086Z,96.10
2018-04-24T22:00:54.214Z,95.70
2018-04-24T22:03:22.369Z,95.80
2018-04-24T22:05:51.259Z,95.70
2018-04-24T22:08:20.200Z,95.70
2018-04-24T22:10:48.936Z,95.70
2018-04-24T22:13:17.852Z,96.00
2018-04-24T22:15:45.984Z,96.00
2018-04-24T22:18:14.136Z,96.20
2018-04-24T22:20:42.271Z,96.50
2018-04-24T22:23:10.429Z,96.60
2018-04-24T22:25:39.356Z,96.80
2018-04-24T22:28:09.669Z,97.10
2018-04-24T22:30:37.801Z,97.00
2018-04-24T22:33:05.960Z,97.00
2018-04-24T22:35:34.086Z,96.80
2018-04-24T22:38:02.233Z,96.60
2018-04-24T22:40:31.608Z,96.30
2018-04-24T22:42:59.741Z,95.70
2018-04-24T22:45:27.868Z,95.80
2018-04-24T22:47:56.471Z,95.60
2018-04-24T22:50:25.361Z,95.40
2018-04-24T22:52:54.267Z,95.10
2018-04-24T22:55:22.386Z,95.10
2018-04-24T22:57:50.547Z,95.20
2018-04-24T23:00:18.695Z,95.70
2018-04-24T23:02:46.846Z,95.70
2018-04-24T23:05:15.731Z,96.00
2018-04-24T23:07:44.652Z,96.10
2018-04-24T23:10:12.283Z,96.10
2018-04-24T23:12:52.152Z,96.00
2018-04-24T23:15:32.260Z,96.50
2018-04-24T23:18:13.436Z,96.60
2018-04-24T23:20:41.078Z,96.60
2018-04-24T23:23:09.234Z,96.30
2018-04-24T23:25:39.373Z,96.10
2018-04-24T23:28:07.490Z,96.10
2018-04-24T23:30:35.638Z,96.00
2018-04-24T23:33:03.784Z,95.80
2018-04-24T23:35:33.479Z,95.70
2018-04-24T23:38:04.438Z,95.70
2018-04-24T23:40:33.301Z,95.80
2018-04-24T23:43:02.459Z,96.00
2018-04-24T23:45:31.087Z,96.20
2018-04-24T23:47:59.213Z,96.10
2018-04-24T23:50:27.410Z,95.90
2018-04-24T23:52:56.728Z,96.10
2018-04-24T23:55:25.507Z,96.60
2018-04-24T23:57:54.403Z,95.20
